createdAt,value
2023-01-12T00:00:52.130Z,7.92
2023-01-12T00:03:19.000Z,8.43
2023-01-12T00:05:45.822Z,7.64
2023-01-12T00:08:12.766Z,8.33
2023-01-12T00:10:39.521Z,8.43
2023-01-12T00:13:06.352Z,8.22
2023-01-12T00:15:36.196Z,8.44
2023-01-12T00:18:02.980Z,8.17
2023-01-12T00:20:29.769Z,8.46
2023-01-12T00:22:56.529Z,7.85
2023-01-12T00:25:23.254Z,8.57
2023-01-12T00:27:49.943Z,7.53
2023-01-12T00:30:16.815Z,8.60
2023-01-12T00:32:44.911Z,7.71
2023-01-12T00:35:12.073Z,8.42
2023-01-12T00:37:38.789Z,8.50
2023-01-12T00:40:06.592Z,8.63
2023-01-12T00:42:33.544Z,8.47
2023-01-12T00:45:00.194Z,8.51
2023-01-12T00:47:27.054Z,7.80
2023-01-12T00:49:55.207Z,7.99
2023-01-12T00:52:30.424Z,8.27
2023-01-12T00:54:57.891Z,8.25
2023-01-12T00:57:24.870Z,7.84
2023-01-12T00:59:53.956Z,7.88
2023-01-12T01:02:20.915Z,8.09
2023-01-12T01:04:47.946Z,7.84
2023-01-12T01:07:16.244Z,8.57
2023-01-12T01:09:43.334Z,7.85
2023-01-12T01:12:10.514Z,8.39
2023-01-12T01:14:38.344Z,8.53
2023-01-12T01:17:05.703Z,8.57
2023-01-12T01:19:32.601Z,8.51
2023-01-12T01:21:59.362Z,7.95
2023-01-12T01:24:29.782Z,8.58
2023-01-12T01:26:56.546Z,8.20
2023-01-12T01:29:23.264Z,8.10
2023-01-12T01:31:49.982Z,8.45
2023-01-12T01:34:16.731Z,8.46
2023-01-12T01:36:43.425Z,8.60
2023-01-12T01:39:10.406Z,8.24
2023-01-12T01:41:38.498Z,8.56
2023-01-12T01:44:07.006Z,8.56
2023-01-12T01:46:38.624Z,8.61
2023-01-12T01:49:17.335Z,8.00
2023-01-12T01:51:45.565Z,8.51
2023-01-12T01:54:13.688Z,7.99
2023-01-12T01:56:42.944Z,8.67
2023-01-12T01:59:15.232Z,8.64
2023-01-12T02:01:42.067Z,8.25
2023-01-12T02:04:09.693Z,7.69
2023-01-12T02:06:36.500Z,7.57
2023-01-12T02:09:08.377Z,8.34
2023-01-12T02:11:35.338Z,7.51
2023-01-12T02:14:03.527Z,8.70
2023-01-12T02:16:33.706Z,7.91
2023-01-12T02:19:21.316Z,8.64
2023-01-12T02:22:24.841Z,8.58
2023-01-12T02:25:17.637Z,8.48
2023-01-12T02:28:08.149Z,8.53
2023-01-12T02:31:20.987Z,7.58
2023-01-12T02:34:00.914Z,8.58
2023-01-12T02:36:35.511Z,7.67
2023-01-12T02:39:08.885Z,7.55
2023-01-12T02:41:40.541Z,8.46
2023-01-12T02:44:13.404Z,7.26
2023-01-12T02:46:44.381Z,8.55
2023-01-12T02:49:17.844Z,7.46
2023-01-12T02:51:51.495Z,7.40
2023-01-12T02:54:21.219Z,7.87
2023-01-12T02:56:50.869Z,7.77
2023-01-12T02:59:22.214Z,8.64
2023-01-12T03:01:49.757Z,8.59
2023-01-12T03:04:19.531Z,8.50
2023-01-12T03:07:07.906Z,8.54
2023-01-12T03:09:40.986Z,8.65
2023-01-12T03:12:11.554Z,8.18
2023-01-12T03:14:42.102Z,8.69
2023-01-12T03:17:17.559Z,8.69
2023-01-12T03:19:48.043Z,7.49
2023-01-12T03:22:16.981Z,7.91
2023-01-12T03:24:48.933Z,8.28
2023-01-12T03:27:18.629Z,8.04
2023-01-12T03:29:48.410Z,7.84
2023-01-12T03:32:15.328Z,7.95
2023-01-12T03:34:42.192Z,8.72
2023-01-12T03:37:22.698Z,7.51
2023-01-12T03:40:00.683Z,8.22
2023-01-12T03:42:33.579Z,8.79
2023-01-12T03:45:10.429Z,7.81
2023-01-12T03:47:40.462Z,8.83
2023-01-12T03:50:11.668Z,8.84
2023-01-12T03:52:43.107Z,8.56
2023-01-12T03:55:11.641Z,8.74
2023-01-12T03:57:39.735Z,8.80
2023-01-12T04:00:09.714Z,8.81
2023-01-12T04:02:36.336Z,8.04
2023-01-12T04:05:03.299Z,7.93
2023-01-12T04:07:30.103Z,8.81
2023-01-12T04:09:58.264Z,8.44
2023-01-12T04:12:25.077Z,7.90
2023-01-12T04:14:51.981Z,7.72
2023-01-12T04:17:18.754Z,8.05
2023-01-12T04:19:45.515Z,8.78
2023-01-12T04:22:15.179Z,8.76
2023-01-12T04:24:42.145Z,8.76
2023-01-12T04:27:10.363Z,8.72
2023-01-12T04:29:37.098Z,8.71
2023-01-12T04:32:04.453Z,8.03
2023-01-12T04:34:31.250Z,7.98
2023-01-12T04:36:58.153Z,7.90
2023-01-12T04:39:24.867Z,8.55
2023-01-12T04:41:51.607Z,8.59
2023-01-12T04:44:19.741Z,8.02
2023-01-12T04:46:49.289Z,7.81
2023-01-12T04:49:16.116Z,7.52
2023-01-12T04:51:43.391Z,8.32
2023-01-12T04:54:10.434Z,7.75
2023-01-12T04:56:37.164Z,8.56
2023-01-12T04:59:04.229Z,8.58
2023-01-12T05:01:32.395Z,8.52
2023-01-12T05:04:00.234Z,7.41
2023-01-12T05:06:27.374Z,7.67
2023-01-12T05:08:54.071Z,8.31
2023-01-12T05:11:21.109Z,8.40
2023-01-12T05:13:48.193Z,7.70
2023-01-12T05:16:17.437Z,7.21
2023-01-12T05:18:46.082Z,8.41
2023-01-12T05:21:13.168Z,7.29
2023-01-12T05:23:40.268Z,7.68
2023-01-12T05:26:07.957Z,7.98
2023-01-12T05:28:35.147Z,8.45
2023-01-12T05:31:04.196Z,7.86
2023-01-12T05:33:31.128Z,7.34
2023-01-12T05:35:59.823Z,8.08
2023-01-12T05:38:26.646Z,8.56
2023-01-12T05:40:53.689Z,8.36
2023-01-12T05:43:20.533Z,8.31
2023-01-12T05:45:47.568Z,8.52
2023-01-12T05:48:14.500Z,8.58
2023-01-12T05:50:41.484Z,7.69
2023-01-12T05:53:09.639Z,8.62
2023-01-12T05:55:42.089Z,7.89
2023-01-12T05:58:09.058Z,8.51
2023-01-12T06:00:38.251Z,8.02
2023-01-12T06:03:05.009Z,7.77
2023-01-12T06:05:34.005Z,8.12
2023-01-12T06:08:00.909Z,7.49
2023-01-12T06:10:29.455Z,7.54
2023-01-12T06:13:06.537Z,7.35
2023-01-12T06:15:33.544Z,8.71
2023-01-12T06:18:00.366Z,7.39
2023-01-12T06:20:27.158Z,8.06
2023-01-12T06:22:54.109Z,8.48
2023-01-12T06:25:21.261Z,8.80
2023-01-12T06:27:49.609Z,8.78
2023-01-12T06:30:18.942Z,8.19
2023-01-12T06:32:45.861Z,7.93
2023-01-12T06:35:19.530Z,7.97
2023-01-12T06:37:46.902Z,7.91
2023-01-12T06:40:14.143Z,7.77
2023-01-12T06:42:41.136Z,8.41
2023-01-12T06:45:19.731Z,8.54
2023-01-12T06:47:47.362Z,7.93
2023-01-12T06:50:14.239Z,9.31
2023-01-12T06:52:41.451Z,8.90
2023-01-12T06:55:11.075Z,8.36
2023-01-12T06:57:37.945Z,8.57
2023-01-12T07:00:06.282Z,8.74
2023-01-12T07:02:34.783Z,9.63
2023-01-12T07:05:01.649Z,9.38
2023-01-12T07:07:30.539Z,9.76
2023-01-12T07:09:59.363Z,9.39
2023-01-12T07:12:26.103Z,8.75
2023-01-12T07:14:55.377Z,8.67
2023-01-12T07:17:22.522Z,10.02
2023-01-12T07:19:52.676Z,9.94
2023-01-12T07:22:19.539Z,9.60
2023-01-12T07:24:46.459Z,9.58
2023-01-12T07:27:13.465Z,10.06
2023-01-12T07:29:40.400Z,9.20
2023-01-12T07:32:09.906Z,8.92
2023-01-12T07:34:36.746Z,9.65
2023-01-12T07:37:05.082Z,9.05
2023-01-12T07:39:31.807Z,9.03
2023-01-12T07:41:58.487Z,10.23
2023-01-12T07:44:25.323Z,10.24
2023-01-12T07:46:52.230Z,10.26
2023-01-12T07:49:19.176Z,10.03
2023-01-12T07:51:45.956Z,10.24
2023-01-12T07:54:14.231Z,10.29
2023-01-12T07:56:44.175Z,9.80
2023-01-12T07:59:11.536Z,9.27
2023-01-12T08:01:38.749Z,9.61
2023-01-12T08:04:08.719Z,9.05
2023-01-12T08:06:38.096Z,10.31
2023-01-12T08:09:04.910Z,9.90
2023-01-12T08:11:37.327Z,10.33
2023-01-12T08:14:06.559Z,10.47
2023-01-12T08:16:41.845Z,9.92
2023-01-12T08:19:12.462Z,10.31
2023-01-12T08:21:44.166Z,9.75
2023-01-12T08:24:16.170Z,9.32
2023-01-12T08:26:46.630Z,9.98
2023-01-12T08:29:17.796Z,9.36
2023-01-12T08:31:44.662Z,10.26
2023-01-12T08:34:11.798Z,9.31
2023-01-12T08:36:44.074Z,10.49
2023-01-12T08:39:11.634Z,9.38
2023-01-12T08:41:38.402Z,10.08
2023-01-12T08:44:08.043Z,9.54
2023-01-12T08:46:36.617Z,10.53
2023-01-12T08:49:07.306Z,9.49
2023-01-12T08:51:35.778Z,10.63
2023-01-12T08:54:02.630Z,9.67
2023-01-12T08:56:29.389Z,10.50
2023-01-12T08:58:59.347Z,9.73
2023-01-12T09:01:29.351Z,10.62
2023-01-12T09:03:56.769Z,10.61
2023-01-12T09:06:26.022Z,10.08
2023-01-12T09:08:53.911Z,10.32
2023-01-12T09:11:21.085Z,10.67
2023-01-12T09:13:47.996Z,10.16
2023-01-12T09:16:17.026Z,9.94
2023-01-12T09:18:46.328Z,10.13
2023-01-12T09:21:15.021Z,10.24
2023-01-12T09:23:42.898Z,10.52
2023-01-12T09:26:11.415Z,10.54
2023-01-12T09:28:38.552Z,10.55
2023-01-12T09:31:06.739Z,10.44
2023-01-12T09:33:34.002Z,10.00
2023-01-12T09:36:03.958Z,10.75
2023-01-12T09:38:31.212Z,10.43
2023-01-12T09:41:02.475Z,9.68
2023-01-12T09:43:29.346Z,10.79
2023-01-12T09:45:56.107Z,10.14
2023-01-12T09:48:23.113Z,9.82
2023-01-12T09:50:55.756Z,10.61
2023-01-12T09:53:28.627Z,10.70
2023-01-12T09:56:01.403Z,10.81
2023-01-12T09:58:39.520Z,10.98
2023-01-12T10:01:20.445Z,11.07
2023-01-12T10:03:55.691Z,11.08
2023-01-12T10:06:22.552Z,10.31
2023-01-12T10:08:53.193Z,11.07
2023-01-12T10:11:25.971Z,11.16
2023-01-12T10:14:16.053Z,10.13
2023-01-12T10:16:53.267Z,10.95
2023-01-12T10:19:26.065Z,10.69
2023-01-12T10:21:53.935Z,10.90
2023-01-12T10:24:24.632Z,10.21
2023-01-12T10:27:00.068Z,11.09
2023-01-12T10:29:27.412Z,10.08
2023-01-12T10:31:54.189Z,10.90
2023-01-12T10:34:21.304Z,11.01
2023-01-12T10:36:49.795Z,11.18
2023-01-12T10:39:33.343Z,11.17
2023-01-12T10:42:17.584Z,11.06
2023-01-12T10:44:44.387Z,10.36
2023-01-12T10:47:17.603Z,10.65
2023-01-12T10:49:44.421Z,11.13
2023-01-12T10:52:36.345Z,10.89
2023-01-12T10:55:05.314Z,10.56
2023-01-12T10:57:33.876Z,10.75
2023-01-12T11:00:01.454Z,11.42
2023-01-12T11:02:42.871Z,11.41
2023-01-12T11:05:26.384Z,11.41
2023-01-12T11:07:53.080Z,11.44
2023-01-12T11:10:28.086Z,10.93
2023-01-12T11:12:56.639Z,11.49
2023-01-12T11:15:23.404Z,11.43
2023-01-12T11:18:03.780Z,10.92
2023-01-12T11:20:35.696Z,11.55
2023-01-12T11:23:05.046Z,11.60
2023-01-12T11:25:39.274Z,11.57
2023-01-12T11:28:13.170Z,11.73
2023-01-12T11:30:44.981Z,11.75
2023-01-12T11:33:16.202Z,11.70
2023-01-12T11:35:51.577Z,11.75
2023-01-12T11:38:23.667Z,11.78
2023-01-12T11:40:55.535Z,11.40
2023-01-12T11:43:31.771Z,11.80
2023-01-12T11:46:03.872Z,11.79
2023-01-12T11:48:38.736Z,11.11
2023-01-12T11:51:05.447Z,11.80
2023-01-12T11:53:32.531Z,11.71
2023-01-12T11:56:10.400Z,10.67
2023-01-12T11:58:49.596Z,11.30
2023-01-12T12:01:22.049Z,11.34
2023-01-12T12:04:00.903Z,11.33
2023-01-12T12:06:46.228Z,11.80
2023-01-12T12:09:29.343Z,11.83
2023-01-12T12:12:01.912Z,11.78
2023-01-12T12:14:47.258Z,11.70
2023-01-12T12:17:20.722Z,11.75
2023-01-12T12:19:59.800Z,11.84
2023-01-12T12:22:39.769Z,11.40
2023-01-12T12:25:22.568Z,11.84
2023-01-12T12:28:10.332Z,11.14
2023-01-12T12:31:01.679Z,10.78
2023-01-12T12:33:40.043Z,11.73
2023-01-12T12:36:18.124Z,11.37
2023-01-12T12:39:23.706Z,11.79
2023-01-12T12:42:00.318Z,11.70
2023-01-12T12:44:39.152Z,10.81
2023-01-12T12:47:24.107Z,11.27
2023-01-12T12:49:54.668Z,11.74
2023-01-12T12:52:23.238Z,11.74
2023-01-12T12:54:51.265Z,11.33
2023-01-12T12:57:18.109Z,10.57
2023-01-12T12:59:55.382Z,10.98
2023-01-12T13:02:37.646Z,11.65
2023-01-12T13:05:06.766Z,11.55
2023-01-12T13:07:44.660Z,11.70
2023-01-12T13:10:21.065Z,11.70
2023-01-12T13:13:01.809Z,11.54
2023-01-12T13:15:32.804Z,11.53
2023-01-12T13:17:59.950Z,11.76
2023-01-12T13:21:02.580Z,11.68
2023-01-12T13:23:50.822Z,11.59
2023-01-12T13:26:36.883Z,11.53
2023-01-12T13:29:49.223Z,11.72
2023-01-12T13:32:59.255Z,11.66
2023-01-12T13:35:42.313Z,11.49
2023-01-12T13:38:15.730Z,11.45
2023-01-12T13:40:42.678Z,11.03
2023-01-12T13:43:28.454Z,11.46
2023-01-12T13:45:58.427Z,10.76
2023-01-12T13:48:29.623Z,11.52
2023-01-12T13:50:59.597Z,10.93
2023-01-12T13:53:29.008Z,11.45
2023-01-12T13:55:57.946Z,11.63
2023-01-12T13:58:24.782Z,11.64
2023-01-12T14:00:56.856Z,10.53
2023-01-12T14:03:39.276Z,11.53
2023-01-12T14:06:15.344Z,11.57
2023-01-12T14:08:57.825Z,11.57
2023-01-12T14:12:09.440Z,11.52
2023-01-12T14:15:06.813Z,11.48
2023-01-12T14:17:34.684Z,11.51
2023-01-12T14:20:02.861Z,11.28
2023-01-12T14:22:29.613Z,11.33
2023-01-12T14:25:16.731Z,11.39
2023-01-12T14:27:50.860Z,11.37
2023-01-12T14:30:17.934Z,11.19
2023-01-12T14:32:46.263Z,10.83
2023-01-12T14:35:26.633Z,10.85
2023-01-12T14:37:59.493Z,10.85
2023-01-12T14:40:30.888Z,9.99
2023-01-12T14:42:58.578Z,11.05
2023-01-12T14:45:27.690Z,10.26
2023-01-12T14:47:55.025Z,9.97
2023-01-12T14:50:24.790Z,10.90
2023-01-12T14:52:53.525Z,11.05
2023-01-12T14:55:28.586Z,10.76
2023-01-12T14:57:58.795Z,11.04
2023-01-12T15:00:28.053Z,10.54
2023-01-12T15:02:57.150Z,10.50
2023-01-12T15:05:27.106Z,10.38
2023-01-12T15:07:57.254Z,10.32
2023-01-12T15:10:30.659Z,10.36
2023-01-12T15:12:58.907Z,9.81
2023-01-12T15:15:27.237Z,10.66
2023-01-12T15:17:56.067Z,10.11
2023-01-12T15:20:23.082Z,10.15
2023-01-12T15:22:51.636Z,10.59
2023-01-12T15:25:18.842Z,10.34
2023-01-12T15:27:45.727Z,10.75
2023-01-12T15:30:13.255Z,10.86
2023-01-12T15:32:47.346Z,9.81
2023-01-12T15:35:16.956Z,9.78
2023-01-12T15:37:43.741Z,10.94
2023-01-12T15:40:14.617Z,10.31
2023-01-12T15:42:41.798Z,10.84
2023-01-12T15:45:28.125Z,10.71
2023-01-12T15:47:55.034Z,10.46
2023-01-12T15:50:21.938Z,10.95
2023-01-12T15:52:48.981Z,10.77
2023-01-12T15:55:22.935Z,10.21
2023-01-12T15:57:49.968Z,10.42
2023-01-12T16:00:19.229Z,10.52
2023-01-12T16:02:47.040Z,10.84
2023-01-12T16:05:17.259Z,9.93
2023-01-12T16:07:45.153Z,10.64
2023-01-12T16:10:14.410Z,10.68
2023-01-12T16:12:43.044Z,10.70
2023-01-12T16:15:19.569Z,10.25
2023-01-12T16:17:46.427Z,10.39
2023-01-12T16:20:14.120Z,9.77
2023-01-12T16:22:40.940Z,9.67
2023-01-12T16:25:10.874Z,10.70
2023-01-12T16:27:38.491Z,10.47
2023-01-12T16:30:12.855Z,10.67
2023-01-12T16:32:39.564Z,10.44
2023-01-12T16:35:06.479Z,9.93
2023-01-12T16:37:33.381Z,10.06
2023-01-12T16:40:00.506Z,9.63
2023-01-12T16:42:28.052Z,10.62
2023-01-12T16:44:56.669Z,10.66
2023-01-12T16:47:25.036Z,9.51
2023-01-12T16:49:55.848Z,9.94
2023-01-12T16:52:22.822Z,9.62
2023-01-12T16:54:52.323Z,9.81
2023-01-12T16:57:19.233Z,10.25
2023-01-12T17:00:01.930Z,9.90
2023-01-12T17:02:30.708Z,9.38
2023-01-12T17:05:03.473Z,10.55
2023-01-12T17:07:31.292Z,9.55
2023-01-12T17:10:00.340Z,9.42
2023-01-12T17:12:27.493Z,10.54
2023-01-12T17:14:54.648Z,9.60
2023-01-12T17:17:26.582Z,10.25
2023-01-12T17:19:58.712Z,9.91
2023-01-12T17:22:25.848Z,9.97
2023-01-12T17:24:55.449Z,10.47
2023-01-12T17:27:23.723Z,10.21
2023-01-12T17:29:57.499Z,9.98
2023-01-12T17:32:40.947Z,10.06
2023-01-12T17:35:17.951Z,9.43
2023-01-12T17:37:47.581Z,9.37
2023-01-12T17:40:20.010Z,9.91
2023-01-12T17:42:51.364Z,10.57
2023-01-12T17:45:24.443Z,10.64
2023-01-12T17:47:58.135Z,10.67
2023-01-12T17:50:32.930Z,10.47
2023-01-12T17:53:00.130Z,10.34
2023-01-12T17:55:27.842Z,10.77
2023-01-12T17:57:54.897Z,10.76
2023-01-12T18:00:22.926Z,10.09
2023-01-12T18:02:58.431Z,10.08
2023-01-12T18:05:32.059Z,9.73
2023-01-12T18:07:58.882Z,10.71
2023-01-12T18:10:25.759Z,9.70
2023-01-12T18:13:04.198Z,10.58
2023-01-12T18:15:35.217Z,10.83
2023-01-12T18:18:17.947Z,10.49
2023-01-12T18:20:47.326Z,10.79
2023-01-12T18:23:41.186Z,9.66
2023-01-12T18:26:11.741Z,10.31
2023-01-12T18:35:46.568Z,9.60
2023-01-12T18:38:39.435Z,10.03
2023-01-12T18:44:02.569Z,9.54
2023-01-12T18:46:44.339Z,10.68
2023-01-12T18:49:14.371Z,10.43
2023-01-12T18:51:41.193Z,10.33
2023-01-12T18:58:50.998Z,9.50
2023-01-12T19:05:26.389Z,9.45
2023-01-12T19:15:08.539Z,10.02
2023-01-12T19:17:42.083Z,10.72
2023-01-12T19:20:18.881Z,10.00
2023-01-12T19:22:53.999Z,10.48
2023-01-12T19:25:48.213Z,9.59
2023-01-12T19:28:34.168Z,10.06
2023-01-12T19:31:33.380Z,10.70
2023-01-12T19:34:24.242Z,10.74
2023-01-12T19:37:06.495Z,9.60
2023-01-12T19:40:01.939Z,10.14
2023-01-12T19:42:46.919Z,10.73
2023-01-12T19:48:36.825Z,10.67
2023-01-12T19:51:09.513Z,10.50
2023-01-12T19:53:41.186Z,10.68
2023-01-12T19:59:56.068Z,9.52
2023-01-12T20:05:14.918Z,10.51
2023-01-12T20:11:17.618Z,10.54
2023-01-12T20:21:20.481Z,10.80
2023-01-12T20:38:24.444Z,9.58
2023-01-12T21:28:54.211Z,9.59
2023-01-12T21:38:26.806Z,10.68
2023-01-12T21:45:05.140Z,10.52
2023-01-12T21:47:52.448Z,10.75
2023-01-12T21:50:54.260Z,9.44
2023-01-12T21:53:45.349Z,10.66
2023-01-12T21:56:23.847Z,10.01
2023-01-12T21:58:51.662Z,10.63
2023-01-12T22:01:38.179Z,10.21
2023-01-12T22:04:13.506Z,9.67
2023-01-12T22:07:15.165Z,10.27
2023-01-12T22:09:47.770Z,9.77
2023-01-12T22:12:16.509Z,9.77
2023-01-12T22:14:50.797Z,9.91
2023-01-12T22:17:20.760Z,9.87
2023-01-12T22:19:57.733Z,9.00
2023-01-12T22:25:30.492Z,9.68
2023-01-12T22:28:03.874Z,9.52
2023-01-12T22:30:41.644Z,9.38
2023-01-12T22:33:16.329Z,9.87
2023-01-12T22:42:35.115Z,10.06
2023-01-12T22:45:07.575Z,8.95
2023-01-12T22:54:22.897Z,8.73
2023-01-12T22:56:57.839Z,9.77
2023-01-12T22:59:44.428Z,8.56
2023-01-12T23:02:29.862Z,9.86
2023-01-12T23:05:11.422Z,8.70
2023-01-12T23:16:48.723Z,8.23
2023-01-12T23:25:44.705Z,9.02
2023-01-12T23:28:13.094Z,9.37
2023-01-12T23:30:40.248Z,9.34
2023-01-12T23:33:10.169Z,9.29
2023-01-12T23:35:40.022Z,9.28
2023-01-12T23:38:09.851Z,9.23
2023-01-12T23:40:36.576Z,9.21
2023-01-12T23:43:05.295Z,8.96
2023-01-12T23:45:36.759Z,9.01
2023-01-12T23:48:13.037Z,8.28
2023-01-12T23:50:50.714Z,7.77
2023-01-12T23:53:21.204Z,8.59
2023-01-12T23:55:56.490Z,8.36
2023-01-12T23:58:41.822Z,8.54
